Flight Track Log - Related Links

Times and Time Zones

All times are in EDT time to prevent confusion due to time zone crossing. See the EJA221 flight status page for this flight to view local times or setup timezone preferences in your user account.

Time Position Orientation Groundspeed Altitude Reporting Facility
EDT Latitude Longitude Course Direction KTS MPH feet Rate Location/Type
Fri 10:52:39 AM 39.2778 -106.8894 North 197 227 9,400  Level Denver Center
Fri 10:53:41 AM 39.2969 -106.9619 289° West 216 249 11,200 2,032 Climbing Denver Center
Fri 10:54:43 AM 39.3119 -107.0478 283° West 236 272 13,600 2,177 Climbing Denver Center
Fri 10:55:45 AM 39.3686 -107.1114 319° Northwest 280 322 15,700 1,065 Climbing Denver Center
Fri 10:56:47 AM 39.4294 -107.0208 49° Northeast 319 367 15,800 242 Climbing Denver Center
Fri 10:57:49 AM 39.4853 -106.9214 54° Northeast 343 395 16,200 581 Climbing Denver Center
Fri 10:58:00 AM 39.7941 -106.9333 North  Level FlightAware Approximate
Fri 10:58:51 AM 39.5839 -106.9064 North 378 435 17,000  Level Denver Center
Fri 10:59:53 AM 39.7086 -106.8978 North 409 471 18,600 1,597 Climbing Denver Center
Fri 11:00:55 AM 39.8261 -106.8897 North 420 483 20,300 1,548 Climbing Denver Center
Fri 11:01:57 AM 39.9544 -106.8431 16° North 436 502 21,800 1,355 Climbing Denver Center
Fri 11:02:59 AM 40.0136 -106.7144 59° Northeast 440 506 23,100 1,306 Climbing Denver Center
Fri 11:04:01 AM 40.0086 -106.5367 92° East 441 507 24,500 1,258 Climbing Denver Center
Fri 11:05:03 AM 40.0011 -106.3869 94° East 448 516 25,700 1,258 Climbing Denver Center
Fri 11:06:05 AM 39.9919 -106.2194 94° East 461 531 27,100 1,306 Climbing Denver Center
Fri 11:07:07 AM 39.9831 -106.0503 94° East 468 539 28,400 1,500 Climbing Denver Center
Fri 11:08:09 AM 39.9711 -105.8397 94° East 497 572 30,200 1,258 Climbing Denver Center
Fri 11:09:11 AM 39.9617 -105.6608 94° East 494 568 31,000 387 Climbing Denver Center
Fri 11:10:13 AM 39.9503 -105.4858 95° East 485 558 31,000 387 Level Denver Center
Fri 11:11:15 AM 39.9392 -105.3103 95° East 482 555 31,800 1,113 Climbing Denver Center
Fri 11:12:17 AM 39.9281 -105.1372 95° East 479 551 33,300 1,548 Climbing Denver Center
Fri 11:13:19 AM 39.9169 -104.9642 95° East 476 548 35,000 816 Climbing Denver Center
Fri 11:14:22 AM 39.9067 -104.7928 94° East 471 542 35,000 720 Level Denver Center
Fri 11:15:24 AM 39.8908 -104.5828 96° East 476 548 36,500 1,597 Climbing Denver Center
Fri 11:16:26 AM 39.8992 -104.4083 86° East 453 521 38,300 1,645 Climbing Denver Center
Fri 11:17:28 AM 39.9114 -104.2361 85° East 469 540 39,900 1,306 Climbing Denver Center
Fri 11:18:30 AM 39.9228 -104.0736 85° East 449 517 41,000 532 Climbing Denver Center
Fri 11:19:32 AM 39.9350 -103.8992 85° East 478 550 41,000  Level Denver Center
Fri 11:20:34 AM 39.9467 -103.7308 85° East 456 525 41,000  Level Denver Center
Fri 11:21:36 AM 39.9578 -103.5603 85° East 463 533 41,000  Level Denver Center
Fri 11:22:38 AM 39.9719 -103.3514 85° East 480 552 41,000  Level Denver Center
Fri 11:23:40 AM 39.9822 -103.1783 86° East 480 552 41,000  Level Denver Center
Fri 11:24:42 AM 39.9928 -103.0047 85° East 480 552 41,000  Level Denver Center
Fri 11:25:44 AM 40.0025 -102.8317 86° East 482 555 41,000  Level Denver Center
Fri 11:26:46 AM 40.0156 -102.6336 85° East 478 550 41,000  Level Denver Center
Fri 11:27:48 AM 40.0247 -102.4672 86° East 480 552 41,000  Level Denver Center
Fri 11:28:50 AM 40.0342 -102.2761 86° East 476 548 41,000  Level Denver Center
Fri 11:29:52 AM 40.0433 -102.1128 86° East 474 545 41,000  Level Denver Center
Fri 11:30:54 AM 40.0528 -101.9478 86° East 476 548 41,000  Level Denver Center
Fri 11:31:56 AM 40.0617 -101.7572 86° East 474 545 41,000  Level Denver Center
Fri 11:32:58 AM 40.0700 -101.5911 86° East 479 551 41,000  Level Denver Center
Fri 11:34:00 AM 40.0797 -101.3986 86° East 479 551 41,000  Level Denver Center
Fri 11:35:02 AM 40.0875 -101.2339 86° East 477 549 41,000  Level Denver Center
Fri 11:36:17 AM 40.0967 -101.0158 87° East 473 544 41,000  Level Denver Center
Fri 11:37:19 AM 40.1050 -100.8244 87° East 475 547 41,000  Level Denver Center
Fri 11:38:21 AM 40.1117 -100.6625 87° East 471 542 41,000  Level Denver Center
Fri 11:39:23 AM 40.1200 -100.4747 87° East 467 537 41,000  Level Denver Center
Fri 11:40:25 AM 40.1256 -100.3108 87° East 471 542 41,000  Level Denver Center
Fri 11:41:27 AM 40.1331 -100.1194 87° East 472 543 41,000  Level Denver Center
Fri 11:42:29 AM 40.1392 -99.9583 87° East 467 537 41,000  Level Denver Center
Fri 11:43:31 AM 40.1439 -99.7925 88° East 466 536 41,000  Level Denver Center
Fri 11:44:33 AM 40.1492 -99.6244 88° East 465 535 41,000  Level Denver Center
Fri 11:45:35 AM 40.1558 -99.4239 87° East 461 531 41,000  Level Denver Center
Fri 11:46:37 AM 40.1608 -99.2550 88° East 464 534 41,000  Level Denver Center
Fri 11:47:34 AM 40.1658 -99.0886 88° East 465 535 41,000  Level Minneapolis Center
Fri 11:48:36 AM 40.1694 -98.9208 88° East 465 535 41,000  Level Minneapolis Center
Fri 11:49:38 AM 40.1731 -98.7525 88° East 465 535 41,000  Level Minneapolis Center
Fri 11:50:40 AM 40.1778 -98.5850 88° East 464 534 41,000  Level Minneapolis Center
Fri 11:51:42 AM 40.1811 -98.4153 88° East 468 539 41,000  Level Minneapolis Center
Fri 11:52:44 AM 40.1847 -98.2453 88° East 469 540 41,000  Level Minneapolis Center
Fri 11:53:46 AM 40.1886 -98.0419 89° East 469 540 41,000  Level Minneapolis Center
Fri 11:54:48 AM 40.1911 -97.9075 89° East 467 537 41,000  Level Minneapolis Center
Fri 11:55:50 AM 40.1947 -97.7042 89° East 467 537 41,000  Level Minneapolis Center
Fri 11:56:53 AM 40.1964 -97.5353 89° East 467 537 41,000  Level Minneapolis Center
Fri 11:57:55 AM 40.1983 -97.3647 89° East 469 540 41,000  Level Minneapolis Center
Fri 11:58:57 AM 40.2017 -97.1767 89° East 470 541 41,000  Level Minneapolis Center
Fri 11:59:59 AM 40.2039 -97.0069 89° East 469 540 41,000  Level Minneapolis Center
Fri 12:01:01 PM 40.2047 -96.8375 90° East 468 539 41,000  Level Minneapolis Center
Fri 12:02:03 PM 40.2067 -96.6697 89° East 465 535 41,000  Level Minneapolis Center
Fri 12:03:05 PM 40.2064 -96.4664 90° East 467 537 41,000  Level Minneapolis Center
Fri 12:04:07 PM 40.2072 -96.2961 90° East 469 540 41,000  Level Minneapolis Center
Fri 12:05:09 PM 40.2081 -96.1264 90° East 470 541 41,000  Level Minneapolis Center
Fri 12:06:11 PM 40.2083 -95.9561 90° East 470 541 41,000  Level Minneapolis Center
Fri 12:07:13 PM 40.2092 -95.7850 90° East 471 542 41,000  Level Minneapolis Center
Fri 12:08:15 PM 40.2092 -95.5833 90° East 467 537 41,000  Level Minneapolis Center
Fri 12:09:17 PM 40.2075 -95.4156 91° East 465 535 41,000  Level Minneapolis Center
Fri 12:10:19 PM 40.2075 -95.2814 90° East 463 533 41,000  Level Minneapolis Center
Fri 12:11:13 PM 40.2058 -95.0919 91° East 462 532 41,000  Level Kansas City Center
Fri 12:12:15 PM 40.2050 -94.9319 90° East 459 528 41,000  Level Kansas City Center
Fri 12:13:17 PM 40.2033 -94.7431 91° East 462 532 41,000  Level Kansas City Center
Fri 12:14:20 PM 40.2014 -94.5847 91° East 457 526 41,000  Level Kansas City Center
Fri 12:15:22 PM 40.2000 -94.4000 91° East 454 522 41,000  Level Kansas City Center
Fri 12:16:24 PM 40.1969 -94.2383 91° East 455 524 41,000  Level Kansas City Center
Fri 12:17:26 PM 40.1917 -94.0672 92° East 456 525 41,000  Level Kansas City Center
Fri 12:18:28 PM 40.1886 -93.9042 91° East 457 526 41,000  Level Kansas City Center
Fri 12:19:30 PM 40.1872 -93.7411 91° East 453 521 41,000  Level Kansas City Center
Fri 12:20:32 PM 40.1836 -93.5781 92° East 453 521 41,000  Level Kansas City Center
Fri 12:21:34 PM 40.1803 -93.3817 91° East 454 522 41,000  Level Kansas City Center
Fri 12:22:36 PM 40.1761 -93.2189 92° East 453 521 41,000  Level Kansas City Center
Fri 12:23:38 PM 40.1728 -93.0581 92° East 450 518 41,000  Level Kansas City Center
Fri 12:24:40 PM 40.1678 -92.8728 92° East 450 518 41,000  Level Kansas City Center
Fri 12:25:42 PM 40.1628 -92.7144 92° East 452 520 41,000  Level Kansas City Center
Fri 12:26:44 PM 40.1553 -92.5283 93° East 459 528 41,000  Level Kansas City Center
Fri 12:27:46 PM 40.1592 -92.3725 88° East 453 521 41,000  Level Kansas City Center
Fri 12:28:48 PM 40.1861 -92.2303 76° East 448 516 41,000  Level Kansas City Center
Fri 12:29:50 PM 40.2125 -92.0469 79° East 436 502 41,000  Level Kansas City Center
Fri 12:30:52 PM 40.2344 -91.8936 79° East 435 501 41,000  Level Kansas City Center
Fri 12:31:54 PM 40.2558 -91.7394 80° East 435 501 41,000  Level Kansas City Center
Fri 12:32:56 PM 40.2772 -91.5844 80° East 436 502 41,000  Level Kansas City Center
Fri 12:33:58 PM 40.3031 -91.3983 80° East 437 503 41,000  Level Kansas City Center
Fri 12:35:00 PM 40.3219 -91.2642 79° East 434 499 41,000  Level Kansas City Center
Fri 12:36:02 PM 40.3425 -91.1078 80° East 435 501 41,000  Level Kansas City Center
Fri 12:37:04 PM 40.3681 -90.9200 80° East 438 504 41,000  Level Kansas City Center
Fri 12:37:39 PM 40.3814 -90.8242 80° East 442 509 41,000  Level Chicago Center
Fri 12:38:41 PM 40.4025 -90.6631 80° East 448 516 41,000  Level Chicago Center
Fri 12:39:43 PM 40.4228 -90.5014 81° East 450 518 41,000  Level Chicago Center
Fri 12:40:45 PM 40.4431 -90.3419 80° East 447 514 41,000  Level Chicago Center
Fri 12:41:47 PM 40.4628 -90.1811 81° East 447 514 41,000  Level Chicago Center
Fri 12:42:49 PM 40.4856 -89.9917 81° East 448 516 41,000  Level Chicago Center
Fri 12:43:52 PM 40.5044 -89.8311 81° East 449 517 41,000  Level Chicago Center
Fri 12:44:54 PM 40.5239 -89.6728 81° East 445 512 41,000  Level Chicago Center
Fri 12:45:56 PM 40.5433 -89.5142 81° East 449 517 41,000  Level Chicago Center
Fri 12:46:58 PM 40.5633 -89.3547 81° East 448 516 41,000  Level Chicago Center
Fri 12:48:00 PM 40.5861 -89.1661 81° East 439 505 41,000  Level Chicago Center
Fri 12:49:02 PM 40.6050 -89.0086 81° East 437 503 41,000  Level Chicago Center
Fri 12:50:04 PM 40.6242 -88.8525 81° East 434 499 41,000  Level Chicago Center
Fri 12:51:06 PM 40.6378 -88.6994 83° East 431 496 41,000  Level Chicago Center
Fri 12:52:08 PM 40.6592 -88.5139 81° East 432 497 41,000  Level Chicago Center
Fri 12:53:10 PM 40.6775 -88.3578 81° East 433 498 41,000  Level Chicago Center
Fri 12:54:12 PM 40.6942 -88.2047 82° East 429 494 41,000  Level Chicago Center
Fri 12:55:14 PM 40.7106 -88.0533 82° East 423 487 41,000  Level Chicago Center
Fri 12:56:16 PM 40.7272 -87.9006 82° East 424 488 41,000  Level Chicago Center
Fri 12:57:19 PM 40.7464 -87.7161 82° East 427 491 41,000  Level Chicago Center
Fri 12:58:21 PM 40.7625 -87.5647 82° East 423 487 41,000  Level Chicago Center
Fri 12:59:23 PM 40.7775 -87.4128 83° East 423 487 41,000  Level Chicago Center
Fri 01:00:25 PM 40.7925 -87.2628 82° East 417 480 41,000  Level Chicago Center
Fri 01:01:27 PM 40.8075 -87.1106 83° East 421 484 41,000  Level Chicago Center
Fri 01:02:29 PM 40.8253 -86.9256 83° East 426 490 41,000  Level Chicago Center
Fri 01:03:31 PM 40.8406 -86.7736 82° East 423 487 41,000 -581 Level Chicago Center
Fri 01:04:33 PM 40.8547 -86.6142 83° East 424 488 39,800 -1,258 Descending Chicago Center
Fri 01:05:35 PM 40.8686 -86.4600 83° East 425 489 38,400 -1,742 Descending Chicago Center
Fri 01:06:37 PM 40.8842 -86.3069 82° East 423 487 36,200 -2,081 Descending Chicago Center
Fri 01:07:39 PM 40.8964 -86.1547 84° East 419 482 34,100 -2,323 Descending Chicago Center
Fri 01:08:41 PM 40.9142 -85.9653 83° East 434 499 31,400 -2,400 Descending Chicago Center
Fri 01:09:44 PM 40.9278 -85.8050 84° East 441 507 29,100 -2,256 Descending Chicago Center
Fri 01:10:46 PM 40.9428 -85.6339 83° East 469 540 26,700 -2,323 Descending Chicago Center
Fri 01:11:48 PM 40.9567 -85.4636 84° East 471 542 24,300 -1,597 Descending Chicago Center
Fri 01:12:50 PM 40.9778 -85.2903 81° East 485 558 23,400 -823 Descending Chicago Center
Fri 01:13:52 PM 41.0792 -85.1483 47° Northeast 456 525 22,600 -677 Descending Chicago Center
Fri 01:14:54 PM 41.1969 -85.1014 17° North 445 512 22,000 -774 Descending Chicago Center
Fri 01:15:56 PM 41.3156 -85.0564 16° North 446 513 21,000 -484 Descending Chicago Center
Fri 01:16:58 PM 41.4328 -85.0111 16° North 444 511 21,000 -484 Level Chicago Center
Fri 01:18:00 PM 41.5497 -84.9664 16° North 443 510 20,000 -1,548 Descending Chicago Center
Fri 01:19:02 PM 41.6850 -84.9053 19° North 433 498 17,800 -1,935 Descending Chicago Center
Fri 01:20:04 PM 41.7544 -84.7767 54° Northeast 429 494 16,000 -1,708 Descending Chicago Center
Fri 01:21:12 PM 41.8139 -84.6150 64° Northeast 403 464 14,100 -1,547 Descending Cleveland Center
Fri 01:22:12 PM 41.8511 -84.5031 66° East 374 430 12,700 -1,250 Descending Cleveland Center
Fri 01:23:12 PM 41.8836 -84.4072 65° Northeast 315 362 11,600 -900 Descending Cleveland Center
Fri 01:24:12 PM 41.9161 -84.3114 65° Northeast 284 327 10,900 -750 Descending Cleveland Center
Fri 01:25:12 PM 41.9394 -84.2292 69° East 273 314 10,100 -450 Descending Cleveland Center
Fri 01:26:12 PM 41.9717 -84.1358 65° Northeast 273 314 10,000 -50 Descending Cleveland Center
Fri 01:27:12 PM 42.0375 -84.0922 26° Northeast 254 292 10,000  Level Cleveland Center
Fri 01:28:12 PM 42.1114 -84.0653 15° North 249 287 10,000  Level Cleveland Center
Fri 01:29:12 PM 42.1872 -84.0358 16° North 266 306 10,000  Level Cleveland Center
Fri 01:29:43 PM 42.2317 -84.0186 16° North 276 318 10,000 -65 Level Cleveland Center
Fri 01:30:44 PM 42.3097 -83.9836 18° North 277 319 9,900 -466 Descending Cleveland Center
Fri 01:31:39 PM 42.3633 -83.9358 33° Northeast 266 306 9,100 -983 Descending Cleveland Center
Fri 01:32:40 PM 42.4197 -83.8628 44° Northeast 263 303 8,000 -1,164 Descending Cleveland Center
Fri 01:33:53 PM 42.4803 -83.7844 44° Northeast 262 302 6,500 -1,414 Descending Cleveland Center
Fri 01:35:00 PM 42.5389 -83.7028 46° Northeast 254 292 4,700 -1,567 Descending Cleveland Center
Fri 01:36:07 PM 42.5947 -83.6378 41° Northeast 249 287 3,000 -887 Descending Cleveland Center
Fri 01:36:55 PM 42.6314 -83.5889 44° Northeast 187 215 3,000 -55 Level Cleveland Center
Fri 01:37:56 PM 42.6600 -83.5367 53° Northeast 171 197 2,900 -541 Descending Cleveland Center
Fri 01:38:57 PM 42.6633 -83.4831 85° East 126 145 1,900 -984 Descending Cleveland Center

Login

Don't have an account? Register now (free) for customized features, flight alerts, and more!